PWSweather.com
Personal Weather Stations
Station Observations
KILMORRI1
Goose Lake, Morris, IL 60450

Goose LakeMorris, IL 60450

Lat: 41.34, Lon: -88.3

Elevation: 523

Station Type:

www.gooselakeweather.com

High Low Average
Temperature 37.4°F3.0°C 11.0°F-11.7°C 21.6°F-5.8°C
Dew Point 33.6°F0.9°C 5.9°F-14.5°C 17.4°F-8.1°C
Winds 16.1 mph 25.9 kmh 3.5 mph 5.6 kmh 9.0 mph SW14.5 kmh SW
Wind Gusts 28.8 mph46.3 kmh 4.6 mph7.4 kmh 14.0 mph22.5 kmh
Humidity 92% 73% 84%
Pressure 29.97 in1014.9 mb 29.54 in1000.3 mb -
Precipitation 0.06 in1.5 mm - -
Hour Temp Dew Point Humidity Winds Wind Gusts Pressure Precip Precip Rate Daily Precip Total
12:00 AM 11.0°F-11.7°C 6.0°F-14.4°C 80% 6.9 mph E11.1 kmh E 9.2 mph14.8 kmh 29.91 in1012.9 mb - 0.00 in0.0 mm 0.00 in0.0 mm
12:10 AM 11.1°F-11.6°C 6.4°F-14.2°C 81% 12.7 mph E20.4 kmh E 16.1 mph25.9 kmh 29.89 in1012.2 mb - 0.00 in0.0 mm 0.00 in0.0 mm
12:20 AM 11.4°F-11.4°C 6.9°F-13.9°C 82% 9.2 mph E14.8 kmh E 16.1 mph25.9 kmh 29.88 in1011.9 mb - 0.00 in0.0 mm 0.00 in0.0 mm
12:30 AM 11.6°F-11.3°C 7.1°F-13.8°C 82% 9.2 mph E14.8 kmh E 12.7 mph20.4 kmh 29.87 in1011.5 mb - 0.00 in0.0 mm 0.00 in0.0 mm
12:40 AM 11.7°F-11.3°C 7.5°F-13.6°C 83% 8.1 mph E13.0 kmh E 13.8 mph22.2 kmh 29.86 in1011.2 mb - 0.00 in0.0 mm 0.00 in0.0 mm
12:50 AM 11.9°F-11.2°C 7.7°F-13.5°C 83% 6.9 mph E11.1 kmh E 9.2 mph14.8 kmh 29.85 in1010.8 mb - 0.00 in0.0 mm 0.00 in0.0 mm
01:00 AM 12.1°F-11.1°C 8.2°F-13.2°C 84% 5.8 mph ESE9.3 kmh ESE 8.1 mph13.0 kmh 29.84 in1010.5 mb - 0.00 in0.0 mm 0.00 in0.0 mm
01:10 AM 12.3°F-10.9°C 8.4°F-13.1°C 84% 6.9 mph E11.1 kmh E 11.5 mph18.5 kmh 29.82 in1009.8 mb - 0.00 in0.0 mm 0.00 in0.0 mm
01:20 AM 12.7°F-10.7°C 8.8°F-12.9°C 84% 8.1 mph E13.0 kmh E 8.1 mph13.0 kmh 29.80 in1009.1 mb - 0.00 in0.0 mm 0.00 in0.0 mm
01:30 AM 12.9°F-10.6°C 9.3°F-12.6°C 85% 9.2 mph ESE14.8 kmh ESE 15.0 mph24.1 kmh 29.79 in1008.8 mb - 0.00 in0.0 mm 0.00 in0.0 mm
01:40 AM 13.3°F-10.4°C 9.6°F-12.4°C 85% 5.8 mph E9.3 kmh E 8.1 mph13.0 kmh 29.79 in1008.8 mb - 0.00 in0.0 mm 0.00 in0.0 mm
01:50 AM 13.8°F-10.1°C 10.1°F-12.2°C 85% 5.8 mph ESE9.3 kmh ESE 10.4 mph16.7 kmh 29.78 in1008.5 mb - 0.00 in0.0 mm 0.00 in0.0 mm
02:00 AM 14.4°F-9.8°C 11.0°F-11.7°C 86% 3.5 mph ESE5.6 kmh ESE 5.8 mph9.3 kmh 29.78 in1008.5 mb - 0.00 in0.0 mm 0.00 in0.0 mm
02:10 AM 15.2°F-9.3°C 11.8°F-11.2°C 86% 6.9 mph ESE11.1 kmh ESE 12.7 mph20.4 kmh 29.76 in1007.8 mb - 0.00 in0.0 mm 0.00 in0.0 mm
02:20 AM 16.0°F-8.9°C 12.6°F-10.8°C 86% 8.1 mph ESE13.0 kmh ESE 12.7 mph20.4 kmh 29.75 in1007.5 mb - 0.00 in0.0 mm 0.00 in0.0 mm
02:30 AM 16.8°F-8.4°C 13.3°F-10.4°C 86% 6.9 mph SE11.1 kmh SE 11.5 mph18.5 kmh 29.73 in1006.8 mb - 0.00 in0.0 mm 0.00 in0.0 mm
02:40 AM 17.5°F-8.1°C 14.0°F-10.0°C 86% 6.9 mph SE11.1 kmh SE 12.7 mph20.4 kmh 29.71 in1006.1 mb - 0.00 in0.0 mm 0.00 in0.0 mm
02:50 AM 17.5°F-8.1°C 14.0°F-10.0°C 86% 3.5 mph SE5.6 kmh SE 6.9 mph11.1 kmh 29.70 in1005.8 mb - 0.00 in0.0 mm 0.00 in0.0 mm
03:00 AM 17.8°F-7.9°C 14.6°F-9.7°C 87% 4.6 mph SE7.4 kmh SE 8.1 mph13.0 kmh 29.69 in1005.4 mb - 0.00 in0.0 mm 0.00 in0.0 mm
03:10 AM 18.3°F-7.6°C 15.1°F-9.4°C 87% 6.9 mph SE11.1 kmh SE 10.4 mph16.7 kmh 29.68 in1005.1 mb - 0.00 in0.0 mm 0.00 in0.0 mm
03:20 AM 18.9°F-7.3°C 15.6°F-9.1°C 87% 6.9 mph ESE11.1 kmh ESE 15.0 mph24.1 kmh 29.66 in1004.4 mb - 0.00 in0.0 mm 0.00 in0.0 mm
03:30 AM 19.7°F-6.8°C 16.5°F-8.6°C 87% 4.6 mph SE7.4 kmh SE 6.9 mph11.1 kmh 29.65 in1004.1 mb - 0.00 in0.0 mm 0.00 in0.0 mm
03:40 AM 21.1°F-6.1°C 18.1°F-7.7°C 88% 5.8 mph SSE9.3 kmh SSE 10.4 mph16.7 kmh 29.64 in1003.7 mb - 0.00 in0.0 mm 0.00 in0.0 mm
03:50 AM 22.6°F-5.2°C 19.6°F-6.9°C 88% 8.1 mph SSE13.0 kmh SSE 11.5 mph18.5 kmh 29.63 in1003.4 mb - 0.00 in0.0 mm 0.00 in0.0 mm
04:00 AM 23.5°F-4.7°C 20.5°F-6.4°C 88% 8.1 mph SE13.0 kmh SE 19.6 mph31.5 kmh 29.61 in1002.7 mb - 0.00 in0.0 mm 0.00 in0.0 mm
04:10 AM 24.2°F-4.3°C 21.2°F-6.0°C 88% 6.9 mph SSE11.1 kmh SSE 6.9 mph11.1 kmh 29.61 in1002.7 mb - 0.00 in0.0 mm 0.00 in0.0 mm
04:20 AM 25.1°F-3.8°C 22.0°F-5.6°C 88% 6.9 mph SSE11.1 kmh SSE 11.5 mph18.5 kmh 29.61 in1002.7 mb - 0.00 in0.0 mm 0.00 in0.0 mm
04:30 AM 25.6°F-3.6°C 22.5°F-5.3°C 88% 5.8 mph SSE9.3 kmh SSE 20.7 mph33.3 kmh 29.61 in1002.7 mb - 0.00 in0.0 mm 0.00 in0.0 mm
04:40 AM 26.2°F-3.2°C 23.4°F-4.8°C 89% 9.2 mph S14.8 kmh S 16.1 mph25.9 kmh 29.61 in1002.7 mb - 0.00 in0.0 mm 0.00 in0.0 mm
04:50 AM 26.7°F-2.9°C 23.9°F-4.5°C 89% 8.1 mph SSE13.0 kmh SSE 11.5 mph18.5 kmh 29.61 in1002.7 mb - 0.00 in0.0 mm 0.00 in0.0 mm
05:00 AM 27.2°F-2.7°C 24.4°F-4.2°C 89% 8.1 mph S13.0 kmh S 11.5 mph18.5 kmh 29.60 in1002.4 mb - 0.00 in0.0 mm 0.00 in0.0 mm
05:10 AM 27.6°F-2.4°C 24.8°F-4.0°C 89% 4.6 mph SSE7.4 kmh SSE 9.2 mph14.8 kmh 29.59 in1002.0 mb - 0.00 in0.0 mm 0.00 in0.0 mm
05:20 AM 28.3°F-2.1°C 25.7°F-3.5°C 90% 8.1 mph SSE13.0 kmh SSE 11.5 mph18.5 kmh 29.59 in1002.0 mb - 0.00 in0.0 mm 0.00 in0.0 mm
05:30 AM 28.8°F-1.8°C 26.2°F-3.2°C 90% 10.4 mph S16.7 kmh S 13.8 mph22.2 kmh 29.58 in1001.7 mb - 0.00 in0.0 mm 0.00 in0.0 mm
05:40 AM 29.4°F-1.4°C 26.8°F-2.9°C 90% 8.1 mph S13.0 kmh S 10.4 mph16.7 kmh 29.57 in1001.4 mb - 0.00 in0.0 mm 0.00 in0.0 mm
05:50 AM 29.9°F-1.2°C 27.3°F-2.6°C 90% 6.9 mph S11.1 kmh S 10.4 mph16.7 kmh 29.57 in1001.4 mb - 0.00 in0.0 mm 0.00 in0.0 mm
06:00 AM 30.3°F-0.9°C 27.7°F-2.4°C 90% 9.2 mph S14.8 kmh S 12.7 mph20.4 kmh 29.56 in1001.0 mb - 0.00 in0.0 mm 0.00 in0.0 mm
06:10 AM 31.0°F-0.6°C 28.7°F-1.8°C 91% 5.8 mph S9.3 kmh S 11.5 mph18.5 kmh 29.56 in1001.0 mb - 0.00 in0.0 mm 0.00 in0.0 mm
06:20 AM 31.8°F-0.1°C 29.5°F-1.4°C 91% 9.2 mph S14.8 kmh S 19.6 mph31.5 kmh 29.55 in1000.7 mb - 0.00 in0.0 mm 0.00 in0.0 mm
06:30 AM 32.5°F0.3°C 30.2°F-1.0°C 91% 8.1 mph S13.0 kmh S 13.8 mph22.2 kmh 29.55 in1000.7 mb - 0.00 in0.0 mm 0.00 in0.0 mm
06:40 AM 33.0°F0.6°C 30.7°F-0.7°C 91% 6.9 mph S11.1 kmh S 9.2 mph14.8 kmh 29.55 in1000.7 mb - 0.00 in0.0 mm 0.00 in0.0 mm
06:50 AM 33.0°F0.6°C 30.7°F-0.7°C 91% 9.2 mph S14.8 kmh S 13.8 mph22.2 kmh 29.55 in1000.7 mb - 0.00 in0.0 mm 0.00 in0.0 mm
07:00 AM 33.0°F0.6°C 30.7°F-0.7°C 91% 9.2 mph S14.8 kmh S 12.7 mph20.4 kmh 29.55 in1000.7 mb - 0.00 in0.0 mm 0.00 in0.0 mm
07:10 AM 33.1°F0.6°C 30.8°F-0.7°C 91% 8.1 mph S13.0 kmh S 19.6 mph31.5 kmh 29.55 in1000.7 mb - 0.00 in0.0 mm 0.00 in0.0 mm
07:20 AM 33.1°F0.6°C 31.0°F-0.6°C 92% 9.2 mph S14.8 kmh S 13.8 mph22.2 kmh 29.55 in1000.7 mb - 0.00 in0.0 mm 0.00 in0.0 mm
07:30 AM 33.1°F0.6°C 31.0°F-0.6°C 92% 6.9 mph S11.1 kmh S 9.2 mph14.8 kmh 29.55 in1000.7 mb - 0.00 in0.0 mm 0.00 in0.0 mm
07:40 AM 33.3°F0.7°C 31.2°F-0.4°C 92% 6.9 mph S11.1 kmh S 12.7 mph20.4 kmh 29.55 in1000.7 mb - 0.00 in0.0 mm 0.00 in0.0 mm
07:50 AM 33.4°F0.8°C 31.3°F-0.4°C 92% 4.6 mph S7.4 kmh S 10.4 mph16.7 kmh 29.55 in1000.7 mb - 0.00 in0.0 mm 0.00 in0.0 mm
08:00 AM 33.8°F1.0°C 31.7°F-0.2°C 92% 6.9 mph S11.1 kmh S 9.2 mph14.8 kmh 29.55 in1000.7 mb - 0.00 in0.0 mm 0.00 in0.0 mm
08:10 AM 34.0°F1.1°C 31.9°F-0.1°C 92% 6.9 mph S11.1 kmh S 11.5 mph18.5 kmh 29.55 in1000.7 mb - 0.00 in0.0 mm 0.00 in0.0 mm
08:20 AM 34.1°F1.2°C 32.0°F0.0°C 92% 6.9 mph S11.1 kmh S 11.5 mph18.5 kmh 29.54 in1000.3 mb - 0.00 in0.0 mm 0.00 in0.0 mm
08:30 AM 34.4°F1.3°C 32.3°F0.2°C 92% 8.1 mph SSW13.0 kmh SSW 12.7 mph20.4 kmh 29.54 in1000.3 mb - 0.00 in0.0 mm 0.00 in0.0 mm
08:40 AM 34.8°F1.6°C 32.7°F0.4°C 92% 6.9 mph SSW11.1 kmh SSW 10.4 mph16.7 kmh 29.54 in1000.3 mb - 0.00 in0.0 mm 0.00 in0.0 mm
08:50 AM 35.0°F1.7°C 32.9°F0.5°C 92% 8.1 mph SSW13.0 kmh SSW 11.5 mph18.5 kmh 29.54 in1000.3 mb - 0.00 in0.0 mm 0.00 in0.0 mm
09:00 AM 35.1°F1.7°C 32.7°F0.4°C 91% 6.9 mph SSW11.1 kmh SSW 11.5 mph18.5 kmh 29.54 in1000.3 mb - 0.00 in0.0 mm 0.00 in0.0 mm
09:10 AM 35.2°F1.8°C 32.8°F0.4°C 91% 6.9 mph SW11.1 kmh SW 8.1 mph13.0 kmh 29.55 in1000.7 mb - 0.00 in0.0 mm 0.00 in0.0 mm
09:20 AM 35.4°F1.9°C 33.0°F0.6°C 91% 3.5 mph SW5.6 kmh SW 9.2 mph14.8 kmh 29.55 in1000.7 mb - 0.00 in0.0 mm 0.00 in0.0 mm
09:30 AM 35.5°F1.9°C 33.2°F0.7°C 91% 5.8 mph SW9.3 kmh SW 8.1 mph13.0 kmh 29.54 in1000.3 mb - 0.00 in0.0 mm 0.00 in0.0 mm
09:40 AM 36.0°F2.2°C 33.4°F0.8°C 90% 8.1 mph SW13.0 kmh SW 11.5 mph18.5 kmh 29.55 in1000.7 mb - 0.00 in0.0 mm 0.00 in0.0 mm
09:50 AM 36.5°F2.5°C 33.6°F0.9°C 89% 6.9 mph SW11.1 kmh SW 10.4 mph16.7 kmh 29.55 in1000.7 mb - 0.00 in0.0 mm 0.00 in0.0 mm
10:00 AM 36.8°F2.7°C 33.6°F0.9°C 88% 5.8 mph SW9.3 kmh SW 8.1 mph13.0 kmh 29.55 in1000.7 mb - 0.00 in0.0 mm 0.00 in0.0 mm
10:10 AM 37.0°F2.8°C 33.5°F0.8°C 87% 6.9 mph SW11.1 kmh SW 11.5 mph18.5 kmh 29.55 in1000.7 mb - 0.00 in0.0 mm 0.00 in0.0 mm
10:20 AM 37.0°F2.8°C 33.2°F0.7°C 86% 6.9 mph WSW11.1 kmh WSW 8.1 mph13.0 kmh 29.55 in1000.7 mb - 0.00 in0.0 mm 0.00 in0.0 mm
10:30 AM 37.0°F2.8°C 32.9°F0.5°C 85% 9.2 mph SW14.8 kmh SW 15.0 mph24.1 kmh 29.55 in1000.7 mb - 0.00 in0.0 mm 0.00 in0.0 mm
10:40 AM 37.4°F3.0°C 33.0°F0.6°C 84% 3.5 mph WNW5.6 kmh WNW 6.9 mph11.1 kmh 29.56 in1001.0 mb - 0.00 in0.0 mm 0.00 in0.0 mm
10:50 AM 37.1°F2.8°C 32.5°F0.3°C 83% 10.4 mph W16.7 kmh W 15.0 mph24.1 kmh 29.56 in1001.0 mb - 0.00 in0.0 mm 0.00 in0.0 mm
11:00 AM 36.6°F2.6°C 31.6°F-0.2°C 82% 12.7 mph W20.4 kmh W 19.6 mph31.5 kmh 29.57 in1001.4 mb - 0.01 in0.3 mm 0.01 in0.3 mm
11:10 AM 35.9°F2.2°C 30.9°F-0.6°C 82% 13.8 mph WNW22.2 kmh WNW 19.6 mph31.5 kmh 29.57 in1001.4 mb - 0.00 in0.0 mm 0.01 in0.3 mm
11:20 AM 34.6°F1.4°C 29.9°F-1.2°C 83% 12.7 mph W20.4 kmh W 17.3 mph27.8 kmh 29.58 in1001.7 mb - 0.00 in0.0 mm 0.01 in0.3 mm
11:30 AM 33.6°F0.9°C 29.0°F-1.7°C 83% 10.4 mph W16.7 kmh W 17.3 mph27.8 kmh 29.58 in1001.7 mb - 0.00 in0.0 mm 0.01 in0.3 mm
11:40 AM 32.6°F0.3°C 28.0°F-2.2°C 83% 10.4 mph W16.7 kmh W 12.7 mph20.4 kmh 29.58 in1001.7 mb - 0.00 in0.0 mm 0.01 in0.3 mm
11:50 AM 32.6°F0.3°C 27.7°F-2.4°C 82% 10.4 mph W16.7 kmh W 16.1 mph25.9 kmh 29.58 in1001.7 mb - 0.01 in0.3 mm 0.02 in0.5 mm
12:00 PM 32.0°F0.0°C 26.8°F-2.9°C 81% 6.9 mph W11.1 kmh W 11.5 mph18.5 kmh 29.58 in1001.7 mb - 0.00 in0.0 mm 0.02 in0.5 mm
12:10 PM 31.5°F-0.3°C 26.4°F-3.1°C 81% 9.2 mph W14.8 kmh W 13.8 mph22.2 kmh 29.57 in1001.4 mb - 0.01 in0.3 mm 0.03 in0.8 mm
12:20 PM 30.4°F-0.9°C 24.9°F-3.9°C 80% 12.7 mph WNW20.4 kmh WNW 18.4 mph29.6 kmh 29.58 in1001.7 mb - 0.00 in0.0 mm 0.03 in0.8 mm
12:30 PM 29.9°F-1.2°C 24.8°F-4.0°C 81% 8.1 mph W13.0 kmh W 11.5 mph18.5 kmh 29.59 in1002.0 mb - 0.01 in0.3 mm 0.04 in1.0 mm
12:40 PM 28.4°F-2.0°C 23.3°F-4.8°C 81% 10.4 mph W16.7 kmh W 18.4 mph29.6 kmh 29.60 in1002.4 mb - 0.00 in0.0 mm 0.04 in1.0 mm
12:50 PM 27.4°F-2.6°C 22.4°F-5.3°C 81% 12.7 mph WSW20.4 kmh WSW 13.8 mph22.2 kmh 29.60 in1002.4 mb - 0.01 in0.3 mm 0.05 in1.3 mm
01:00 PM 26.8°F-2.9°C 21.7°F-5.7°C 81% 12.7 mph W20.4 kmh W 17.3 mph27.8 kmh 29.60 in1002.4 mb - 0.01 in0.3 mm 0.05 in1.3 mm
01:10 PM 26.0°F-3.3°C 21.3°F-5.9°C 82% 9.2 mph WSW14.8 kmh WSW 11.5 mph18.5 kmh 29.61 in1002.7 mb - 0.01 in0.3 mm 0.06 in1.5 mm
01:20 PM 25.3°F-3.7°C 20.5°F-6.4°C 82% 12.7 mph W20.4 kmh W 18.4 mph29.6 kmh 29.61 in1002.7 mb - 0.00 in0.0 mm 0.06 in1.5 mm
01:30 PM 24.1°F-4.4°C 19.4°F-7.0°C 82% 15.0 mph W24.1 kmh W 23.0 mph37.0 kmh 29.62 in1003.0 mb - 0.00 in0.0 mm 0.06 in1.5 mm
01:40 PM 23.4°F-4.8°C 18.7°F-7.4°C 82% 12.7 mph W20.4 kmh W 16.1 mph25.9 kmh 29.63 in1003.4 mb - 0.00 in0.0 mm 0.06 in1.5 mm
01:50 PM 22.5°F-5.3°C 17.9°F-7.8°C 82% 13.8 mph W22.2 kmh W 26.5 mph42.6 kmh 29.64 in1003.7 mb - 0.00 in0.0 mm 0.06 in1.5 mm
02:00 PM 21.6°F-5.8°C 16.9°F-8.4°C 82% 13.8 mph W22.2 kmh W 19.6 mph31.5 kmh 29.65 in1004.1 mb - 0.00 in0.0 mm 0.06 in1.5 mm
02:10 PM 20.8°F-6.2°C 15.9°F-8.9°C 81% 16.1 mph W25.9 kmh W 28.8 mph46.3 kmh 29.65 in1004.1 mb - 0.00 in0.0 mm 0.06 in1.5 mm
02:20 PM 20.3°F-6.5°C 15.4°F-9.2°C 81% 13.8 mph W22.2 kmh W 23.0 mph37.0 kmh 29.66 in1004.4 mb - 0.00 in0.0 mm 0.06 in1.5 mm
02:30 PM 19.6°F-6.9°C 14.4°F-9.8°C 80% 11.5 mph WSW18.5 kmh WSW 17.3 mph27.8 kmh 29.67 in1004.7 mb - 0.00 in0.0 mm 0.06 in1.5 mm
02:40 PM 18.6°F-7.4°C 13.5°F-10.3°C 80% 11.5 mph W18.5 kmh W 19.6 mph31.5 kmh 29.68 in1005.1 mb - 0.00 in0.0 mm 0.06 in1.5 mm
02:50 PM 17.9°F-7.8°C 12.5°F-10.8°C 79% 13.8 mph W22.2 kmh W 23.0 mph37.0 kmh 29.68 in1005.1 mb - 0.00 in0.0 mm 0.06 in1.5 mm
03:00 PM 17.3°F-8.2°C 11.7°F-11.3°C 78% 8.1 mph W13.0 kmh W 18.4 mph29.6 kmh 29.69 in1005.4 mb - 0.00 in0.0 mm 0.06 in1.5 mm
03:10 PM 16.9°F-8.4°C 11.2°F-11.6°C 78% 11.5 mph WSW18.5 kmh WSW 19.6 mph31.5 kmh 29.70 in1005.8 mb - 0.00 in0.0 mm 0.06 in1.5 mm
03:20 PM 16.4°F-8.7°C 10.8°F-11.8°C 78% 10.4 mph WSW16.7 kmh WSW 15.0 mph24.1 kmh 29.71 in1006.1 mb - 0.00 in0.0 mm 0.06 in1.5 mm
03:30 PM 15.9°F-8.9°C 10.2°F-12.1°C 78% 12.7 mph WSW20.4 kmh WSW 20.7 mph33.3 kmh 29.73 in1006.8 mb - 0.00 in0.0 mm 0.06 in1.5 mm
03:40 PM 15.4°F-9.2°C 10.0°F-12.2°C 79% 9.2 mph W14.8 kmh W 18.4 mph29.6 kmh 29.73 in1006.8 mb - 0.00 in0.0 mm 0.06 in1.5 mm
03:50 PM 15.2°F-9.3°C 10.1°F-12.2°C 80% 9.2 mph WSW14.8 kmh WSW 16.1 mph25.9 kmh 29.74 in1007.1 mb - 0.00 in0.0 mm 0.06 in1.5 mm
04:00 PM 14.9°F-9.5°C 9.6°F-12.4°C 79% 13.8 mph W22.2 kmh W 24.2 mph38.9 kmh 29.75 in1007.5 mb - 0.00 in0.0 mm 0.06 in1.5 mm
04:10 PM 14.6°F-9.7°C 9.3°F-12.6°C 79% 11.5 mph W18.5 kmh W 16.1 mph25.9 kmh 29.75 in1007.5 mb - 0.00 in0.0 mm 0.06 in1.5 mm
04:20 PM 14.5°F-9.7°C 9.5°F-12.5°C 80% 13.8 mph WSW22.2 kmh WSW 19.6 mph31.5 kmh 29.76 in1007.8 mb - 0.00 in0.0 mm 0.06 in1.5 mm
04:30 PM 14.2°F-9.9°C 9.2°F-12.7°C 80% 10.4 mph W16.7 kmh W 19.6 mph31.5 kmh 29.77 in1008.1 mb - 0.00 in0.0 mm 0.06 in1.5 mm
04:40 PM 13.9°F-10.1°C 8.9°F-12.8°C 80% 9.2 mph WSW14.8 kmh WSW 13.8 mph22.2 kmh 29.77 in1008.1 mb - 0.00 in0.0 mm 0.06 in1.5 mm
04:50 PM 13.9°F-10.1°C 8.8°F-12.9°C 80% 12.7 mph WSW20.4 kmh WSW 24.2 mph38.9 kmh 29.78 in1008.5 mb - 0.00 in0.0 mm 0.06 in1.5 mm
05:00 PM 13.5°F-10.3°C 8.5°F-13.1°C 80% 12.7 mph W20.4 kmh W 23.0 mph37.0 kmh 29.78 in1008.5 mb - 0.00 in0.0 mm 0.06 in1.5 mm
05:10 PM 13.4°F-10.3°C 8.4°F-13.1°C 80% 12.7 mph W20.4 kmh W 18.4 mph29.6 kmh 29.78 in1008.5 mb - 0.00 in0.0 mm 0.06 in1.5 mm
05:20 PM 13.5°F-10.3°C 8.4°F-13.1°C 80% 10.4 mph WSW16.7 kmh WSW 18.4 mph29.6 kmh 29.79 in1008.8 mb - 0.00 in0.0 mm 0.06 in1.5 mm
05:30 PM 13.1°F-10.5°C 8.1°F-13.3°C 80% 12.7 mph W20.4 kmh W 19.6 mph31.5 kmh 29.79 in1008.8 mb - 0.00 in0.0 mm 0.06 in1.5 mm
05:40 PM 12.9°F-10.6°C 7.9°F-13.4°C 80% 11.5 mph W18.5 kmh W 13.8 mph22.2 kmh 29.80 in1009.1 mb - 0.00 in0.0 mm 0.06 in1.5 mm
05:50 PM 12.7°F-10.7°C 7.7°F-13.5°C 80% 12.7 mph W20.4 kmh W 19.6 mph31.5 kmh 29.81 in1009.5 mb - 0.00 in0.0 mm 0.06 in1.5 mm
06:00 PM 12.6°F-10.8°C 7.9°F-13.4°C 81% 10.4 mph W16.7 kmh W 17.3 mph27.8 kmh 29.81 in1009.5 mb - 0.00 in0.0 mm 0.06 in1.5 mm
06:10 PM 12.6°F-10.8°C 7.9°F-13.4°C 81% 15.0 mph W24.1 kmh W 19.6 mph31.5 kmh 29.82 in1009.8 mb - 0.00 in0.0 mm 0.06 in1.5 mm
06:20 PM 12.6°F-10.8°C 7.9°F-13.4°C 81% 11.5 mph W18.5 kmh W 18.4 mph29.6 kmh 29.82 in1009.8 mb - 0.00 in0.0 mm 0.06 in1.5 mm
06:30 PM 12.6°F-10.8°C 7.9°F-13.4°C 81% 15.0 mph W24.1 kmh W 26.5 mph42.6 kmh 29.83 in1010.2 mb - 0.00 in0.0 mm 0.06 in1.5 mm
06:40 PM 12.6°F-10.8°C 8.1°F-13.3°C 82% 16.1 mph W25.9 kmh W 20.7 mph33.3 kmh 29.83 in1010.2 mb - 0.00 in0.0 mm 0.06 in1.5 mm
06:50 PM 12.6°F-10.8°C 8.1°F-13.3°C 82% 11.5 mph W18.5 kmh W 18.4 mph29.6 kmh 29.84 in1010.5 mb - 0.00 in0.0 mm 0.06 in1.5 mm
07:00 PM 12.6°F-10.8°C 8.1°F-13.3°C 82% 6.9 mph W11.1 kmh W 13.8 mph22.2 kmh 29.85 in1010.8 mb - 0.00 in0.0 mm 0.06 in1.5 mm
07:10 PM 12.7°F-10.7°C 8.2°F-13.2°C 82% 9.2 mph W14.8 kmh W 13.8 mph22.2 kmh 29.86 in1011.2 mb - 0.00 in0.0 mm 0.06 in1.5 mm
07:20 PM 12.7°F-10.7°C 8.2°F-13.2°C 82% 13.8 mph WNW22.2 kmh WNW 19.6 mph31.5 kmh 29.86 in1011.2 mb - 0.00 in0.0 mm 0.06 in1.5 mm
07:30 PM 12.7°F-10.7°C 8.3°F-13.2°C 82% 10.4 mph W16.7 kmh W 12.7 mph20.4 kmh 29.87 in1011.5 mb - 0.00 in0.0 mm 0.06 in1.5 mm
07:40 PM 12.8°F-10.7°C 8.6°F-13.0°C 83% 12.7 mph W20.4 kmh W 21.9 mph35.2 kmh 29.88 in1011.9 mb - 0.00 in0.0 mm 0.06 in1.5 mm
07:50 PM 12.8°F-10.7°C 8.6°F-13.0°C 83% 13.8 mph W22.2 kmh W 17.3 mph27.8 kmh 29.88 in1011.9 mb - 0.00 in0.0 mm 0.06 in1.5 mm
08:00 PM 13.0°F-10.6°C 8.8°F-12.9°C 83% 8.1 mph W13.0 kmh W 12.7 mph20.4 kmh 29.89 in1012.2 mb - 0.00 in0.0 mm 0.06 in1.5 mm
08:10 PM 13.2°F-10.4°C 9.0°F-12.8°C 83% 8.1 mph W13.0 kmh W 11.5 mph18.5 kmh 29.89 in1012.2 mb - 0.00 in0.0 mm 0.06 in1.5 mm
08:20 PM 13.4°F-10.3°C 9.2°F-12.7°C 83% 9.2 mph W14.8 kmh W 10.4 mph16.7 kmh 29.90 in1012.5 mb - 0.00 in0.0 mm 0.06 in1.5 mm
08:30 PM 13.6°F-10.2°C 9.4°F-12.6°C 83% 5.8 mph WNW9.3 kmh WNW 10.4 mph16.7 kmh 29.91 in1012.9 mb - 0.00 in0.0 mm 0.06 in1.5 mm
08:40 PM 13.8°F-10.1°C 9.6°F-12.4°C 83% 5.8 mph W9.3 kmh W 10.4 mph16.7 kmh 29.91 in1012.9 mb - 0.00 in0.0 mm 0.06 in1.5 mm
08:50 PM 13.9°F-10.1°C 9.7°F-12.4°C 83% 4.6 mph W7.4 kmh W 9.2 mph14.8 kmh 29.92 in1013.2 mb - 0.00 in0.0 mm 0.06 in1.5 mm
09:00 PM 13.9°F-10.1°C 9.4°F-12.6°C 82% 6.9 mph WNW11.1 kmh WNW 13.8 mph22.2 kmh 29.93 in1013.5 mb - 0.00 in0.0 mm 0.06 in1.5 mm
09:10 PM 13.9°F-10.1°C 9.7°F-12.4°C 83% 8.1 mph W13.0 kmh W 11.5 mph18.5 kmh 29.93 in1013.5 mb - 0.00 in0.0 mm 0.06 in1.5 mm
09:20 PM 13.9°F-10.1°C 9.7°F-12.4°C 83% 8.1 mph W13.0 kmh W 10.4 mph16.7 kmh 29.93 in1013.5 mb - 0.00 in0.0 mm 0.06 in1.5 mm
09:30 PM 13.8°F-10.1°C 9.6°F-12.4°C 83% 10.4 mph WNW16.7 kmh WNW 19.6 mph31.5 kmh 29.93 in1013.5 mb - 0.00 in0.0 mm 0.06 in1.5 mm
09:40 PM 13.7°F-10.2°C 8.4°F-13.1°C 79% 10.4 mph NW16.7 kmh NW 13.8 mph22.2 kmh 29.94 in1013.9 mb - 0.00 in0.0 mm 0.06 in1.5 mm
09:50 PM 13.5°F-10.3°C 7.0°F-13.9°C 75% 11.5 mph NW18.5 kmh NW 19.6 mph31.5 kmh 29.94 in1013.9 mb - 0.00 in0.0 mm 0.06 in1.5 mm
10:00 PM 13.4°F-10.3°C 6.7°F-14.1°C 74% 8.1 mph NW13.0 kmh NW 16.1 mph25.9 kmh 29.95 in1014.2 mb - 0.00 in0.0 mm 0.06 in1.5 mm
10:10 PM 13.2°F-10.4°C 6.2°F-14.3°C 73% 6.9 mph NW11.1 kmh NW 17.3 mph27.8 kmh 29.95 in1014.2 mb - 0.00 in0.0 mm 0.06 in1.5 mm
10:20 PM 13.0°F-10.6°C 6.0°F-14.4°C 73% 4.6 mph NW7.4 kmh NW 12.7 mph20.4 kmh 29.95 in1014.2 mb - 0.00 in0.0 mm 0.06 in1.5 mm
10:30 PM 13.0°F-10.6°C 6.0°F-14.4°C 73% 8.1 mph NW13.0 kmh NW 11.5 mph18.5 kmh 29.94 in1013.9 mb - 0.00 in0.0 mm 0.06 in1.5 mm
10:40 PM 13.0°F-10.6°C 5.9°F-14.5°C 73% 6.9 mph WNW11.1 kmh WNW 10.4 mph16.7 kmh 29.95 in1014.2 mb - 0.00 in0.0 mm 0.06 in1.5 mm
10:50 PM 12.9°F-10.6°C 5.9°F-14.5°C 73% 3.5 mph W5.6 kmh W 6.9 mph11.1 kmh 29.95 in1014.2 mb - 0.00 in0.0 mm 0.06 in1.5 mm
11:00 PM 13.0°F-10.6°C 6.0°F-14.4°C 73% 5.8 mph WNW9.3 kmh WNW 10.4 mph16.7 kmh 29.95 in1014.2 mb - 0.00 in0.0 mm 0.06 in1.5 mm
11:10 PM 13.0°F-10.6°C 6.0°F-14.4°C 73% 5.8 mph WNW9.3 kmh WNW 9.2 mph14.8 kmh 29.95 in1014.2 mb - 0.00 in0.0 mm 0.06 in1.5 mm
11:20 PM 13.0°F-10.6°C 6.3°F-14.3°C 74% 3.5 mph WNW5.6 kmh WNW 4.6 mph7.4 kmh 29.96 in1014.6 mb - 0.00 in0.0 mm 0.06 in1.5 mm
11:30 PM 13.1°F-10.5°C 6.4°F-14.2°C 74% 6.9 mph W11.1 kmh W 10.4 mph16.7 kmh 29.96 in1014.6 mb - 0.00 in0.0 mm 0.06 in1.5 mm
11:40 PM 13.1°F-10.5°C 6.6°F-14.1°C 75% 6.9 mph W11.1 kmh W 11.5 mph18.5 kmh 29.96 in1014.6 mb - 0.00 in0.0 mm 0.06 in1.5 mm
11:50 PM 13.0°F-10.6°C 7.4°F-13.7°C 78% 10.4 mph W16.7 kmh W 13.8 mph22.2 kmh 29.97 in1014.9 mb - 0.00 in0.0 mm 0.06 in1.5 mm